Time;durP1;ratioP1;P1;durP2;ratioP2;P2;SDS_P1;SDS_P2;PMS_P1;PMS_P2;Temp;Humidity;BMP_temperature;BMP_pressure;BME280_temperature;BME280_humidity;BME280_pressure;Samples;Min_cycle;Max_cycle;Signal;HPM_P1;HPM_P2
2022/08/17 00:02:20;;;;;;;;;;;;;;;25.91;46.42;99237.63;4430007;32;36766;-82
2022/08/17 00:04:53;;;;;;;;;;;;;;;25.80;46.80;99240.84;4428208;32;38060;-81
2022/08/17 00:07:21;;;;;;;;;;;;;;;25.87;46.54;99239.59;4429527;32;38143;-84
2022/08/17 00:09:48;;;;;;;;;;;;;;;25.86;46.49;99240.56;4429386;32;38798;-81
2022/08/17 00:12:16;;;;;;;;;;;;;;;25.80;46.86;99234.72;4429735;32;37072;-82
2022/08/17 00:15:03;;;;;;;;;;;;;;;25.69;47.07;99243.28;4429052;32;38060;-81
2022/08/17 00:17:31;;;;;;;;;;;;;;;25.68;47.01;99236.25;4428207;32;39217;-82
2022/08/17 00:19:58;;;;;;;;;;;;;;;25.74;46.58;99241.19;4429335;32;39582;-85
2022/08/17 00:22:26;;;;;;;;;;;;;;;25.77;46.60;99235.72;4428235;32;37065;-83
2022/08/17 00:25:06;;;;;;;;;;;;;;;25.70;46.93;99239.66;4421773;32;37825;-83
2022/08/17 00:27:33;;;;;;;;;;;;;;;25.69;46.69;99238.81;4422601;32;38213;-82
2022/08/17 00:30:01;;;;;;;;;;;;;;;25.60;46.97;99234.03;4418713;32;39422;-83
2022/08/17 00:32:34;;;;;;;;;;;;;;;25.59;47.12;99227.03;4431402;32;36816;-82
2022/08/17 00:35:22;;;;;;;;;;;;;;;25.75;46.77;99238.47;4426669;32;38841;-81
2022/08/17 00:37:50;;;;;;;;;;;;;;;25.74;46.62;99231.44;4419328;32;38810;-81
2022/08/17 00:40:17;;;;;;;;;;;;;;;25.69;46.77;99238.81;4421164;32;39449;-82
2022/08/17 00:42:45;;;;;;;;;;;;;;;25.66;46.92;99238.13;4427726;32;38091;-83
2022/08/17 00:45:13;;;;;;;;;;;;;;;25.68;47.11;99239.75;4262048;32;5087199;-83
2022/08/17 00:47:41;;;;;;;;;;;;;;;25.54;47.50;99238.81;4420267;32;40086;-81
2022/08/17 00:50:11;;;;;;;;;;;;;;;25.45;47.84;99235.72;4417567;32;38426;-81
2022/08/17 00:52:41;;;;;;;;;;;;;;;25.62;47.51;99241.88;4414196;32;36760;-82
2022/08/17 00:55:09;;;;;;;;;;;;;;;25.39;47.83;99241.34;4415561;32;37748;-81
2022/08/17 00:57:41;;;;;;;;;;;;;;;25.33;48.11;99236.38;4414244;32;38337;-81
2022/08/17 01:00:13;;;;;;;;;;;;;;;25.42;47.54;99241.19;4417207;32;38462;-82
2022/08/17 01:02:42;;;;;;;;;;;;;;;25.44;47.77;99239.31;4415569;32;37433;-82
2022/08/17 01:05:11;;;;;;;;;;;;;;;25.34;47.68;99238.13;4414422;32;37744;-82
2022/08/17 01:07:39;;;;;;;;;;;;;;;25.26;47.78;99240.31;4414217;32;38039;-82
2022/08/17 01:10:06;;;;;;;;;;;;;;;25.42;47.38;99246.47;4419037;32;38484;-81
2022/08/17 01:12:53;;;;;;;;;;;;;;;25.43;47.43;99248.22;4429638;32;36740;-82
2022/08/17 01:15:21;;;;;;;;;;;;;;;25.39;47.68;99251.09;4429684;32;38652;-81
2022/08/17 01:17:48;;;;;;;;;;;;;;;25.20;48.12;99261.81;4420007;32;38926;-81
2022/08/17 01:20:16;;;;;;;;;;;;;;;25.15;48.39;99261.22;4421650;32;38665;-82
2022/08/17 01:22:43;;;;;;;;;;;;;;;25.23;47.93;99253.72;4416865;32;36451;-81
2022/08/17 01:25:11;;;;;;;;;;;;;;;25.21;48.16;99258.25;4412186;32;37864;-81
2022/08/17 01:27:42;;;;;;;;;;;;;;;25.12;48.50;99254.31;4429594;32;38026;-82
2022/08/17 01:30:10;;;;;;;;;;;;;;;25.28;47.88;99254.34;4430742;32;41483;-82
2022/08/17 01:32:58;;;;;;;;;;;;;;;25.38;47.35;99266.16;4429376;32;36851;-81
2022/08/17 01:35:25;;;;;;;;;;;;;;;25.33;47.39;99268.16;4429846;32;38095;-81
2022/08/17 01:37:52;;;;;;;;;;;;;;;25.18;47.89;99261.06;4423650;32;37958;-82
2022/08/17 01:40:33;;;;;;;;;;;;;;;25.12;48.28;99264.00;4415202;32;38253;-82
2022/08/17 01:43:11;;;;;;;;;;;;;;;25.12;48.20;99259.59;4419863;32;36400;-82
2022/08/17 01:45:43;;;;;;;;;;;;;;;25.21;47.99;99268.84;4423912;32;39328;-82
2022/08/17 01:48:11;;;;;;;;;;;;;;;25.20;47.87;99265.31;4422624;32;37833;-83
2022/08/17 01:50:40;;;;;;;;;;;;;;;25.20;47.93;99261.81;4416334;32;37280;-83
2022/08/17 01:53:12;;;;;;;;;;;;;;;25.19;48.24;99265.41;4428542;32;37891;-83
2022/08/17 01:55:40;;;;;;;;;;;;;;;25.18;48.36;99269.03;4427973;32;39073;-82
2022/08/17 01:58:08;;;;;;;;;;;;;;;25.12;48.61;99264.00;4420628;32;39084;-83
2022/08/17 02:00:37;;;;;;;;;;;;;;;25.15;48.46;99263.88;4445963;32;38654;-83
2022/08/17 02:03:24;;;;;;;;;;;;;;;24.97;48.79;99266.50;4445336;32;36739;-82
2022/08/17 02:05:52;;;;;;;;;;;;;;;24.97;48.69;99271.81;4437902;32;38197;-82
2022/08/17 02:08:20;;;;;;;;;;;;;;;24.77;49.49;99266.69;4441752;32;37404;-83
2022/08/17 02:11:10;;;;;;;;;;;;;;;24.81;49.09;99266.44;4444623;32;38318;-84
2022/08/17 02:13:38;;;;;;;;;;;;;;;24.70;49.72;99265.31;4444959;32;36616;-81
2022/08/17 02:16:05;;;;;;;;;;;;;;;24.75;49.39;99261.47;4437468;32;37588;-85
2022/08/17 02:18:33;;;;;;;;;;;;;;;24.87;49.06;99259.13;4437259;32;38032;-83
2022/08/17 02:21:00;;;;;;;;;;;;;;;24.73;49.32;99252.78;4427738;32;38657;-83
2022/08/17 02:23:28;;;;;;;;;;;;;;;24.65;49.58;99254.94;4445536;32;36332;-82
2022/08/17 02:25:55;;;;;;;;;;;;;;;24.69;49.54;99250.34;4444365;32;37166;-82
2022/08/17 02:28:22;;;;;;;;;;;;;;;24.57;50.03;99247.41;4444615;32;38473;-81
2022/08/17 02:30:50;;;;;;;;;;;;;;;24.72;49.81;99253.69;4445741;32;38759;-81
2022/08/17 02:33:29;;;;;;;;;;;;;;;24.67;50.04;99258.38;4437396;32;36931;-81
2022/08/17 02:36:11;;;;;;;;;;;;;;;24.61;50.09;99255.19;4444288;32;38012;-81
2022/08/17 02:38:38;;;;;;;;;;;;;;;24.52;50.35;99260.00;4424961;32;37893;-81
2022/08/17 02:41:06;;;;;;;;;;;;;;;24.50;50.54;99261.00;4418029;32;38723;-80
2022/08/17 02:43:34;;;;;;;;;;;;;;;24.34;50.90;99261.72;4414216;32;36517;-82
2022/08/17 02:46:02;;;;;;;;;;;;;;;24.43;50.78;99256.97;4123571;32;10000251;-82
2022/08/17 02:48:30;;;;;;;;;;;;;;;24.29;51.16;99255.00;4427081;32;38000;-80
2022/08/17 02:50:58;;;;;;;;;;;;;;;24.18;51.57;99257.28;4421535;32;39474;-81
2022/08/17 02:53:26;;;;;;;;;;;;;;;24.32;51.06;99252.19;4430057;32;38153;-83
2022/08/17 02:56:02;;;;;;;;;;;;;;;24.08;51.63;99254.25;4423533;32;37294;-82
2022/08/17 02:58:29;;;;;;;;;;;;;;;24.08;51.59;99249.81;4423323;32;38833;-82
2022/08/17 03:01:05;;;;;;;;;;;;;;;24.09;51.56;99254.19;4430156;32;39064;-84
2022/08/17 03:03:33;;;;;;;;;;;;;;;24.07;51.43;99253.37;4425572;32;38113;-84
2022/08/17 03:06:01;;;;;;;;;;;;;;;24.16;51.23;99251.25;4424557;32;36277;-84
2022/08/17 03:08:29;;;;;;;;;;;;;;;24.23;50.92;99260.56;4430183;32;37814;-86
2022/08/17 03:10:56;;;;;;;;;;;;;;;24.14;51.21;99262.72;4429473;32;37685;-84
2022/08/17 03:13:23;;;;;;;;;;;;;;;24.14;51.25;99260.09;4428711;32;39164;-83
2022/08/17 03:15:51;;;;;;;;;;;;;;;24.27;50.90;99264.78;4419986;32;36762;-82
2022/08/17 03:18:19;;;;;;;;;;;;;;;24.22;50.92;99266.78;4429098;32;38136;-81
2022/08/17 03:20:54;;;;;;;;;;;;;;;24.33;50.58;99261.81;4422105;32;38794;-81
2022/08/17 03:23:22;;;;;;;;;;;;;;;24.17;51.20;99258.22;4430074;32;38516;-83
2022/08/17 03:25:52;;;;;;;;;;;;;;;23.98;51.60;99259.13;4429030;32;37631;-82
2022/08/17 03:28:20;;;;;;;;;;;;;;;24.25;50.96;99261.34;4423248;32;38993;-83
2022/08/17 03:30:47;;;;;;;;;;;;;;;24.06;51.48;99262.25;4429978;32;38481;-83
2022/08/17 03:33:16;;;;;;;;;;;;;;;24.04;51.57;99258.81;4421217;32;39702;-84
2022/08/17 03:35:43;;;;;;;;;;;;;;;24.17;51.30;99260.88;4430270;32;36488;-83
2022/08/17 03:38:11;;;;;;;;;;;;;;;24.24;51.19;99264.94;4422600;32;37751;-83
2022/08/17 03:40:41;;;;;;;;;;;;;;;24.16;51.61;99267.97;4428008;32;37942;-84
2022/08/17 03:43:26;;;;;;;;;;;;;;;24.28;51.23;99271.75;4429791;32;39522;-80
2022/08/17 03:57:17;;;;;;;;;;;;;;;24.19;51.38;99278.38;4277127;32;5003570;-83
2022/08/17 03:59:45;;;;;;;;;;;;;;;24.04;51.79;99285.25;4417574;32;38453;-83
2022/08/17 04:02:18;;;;;;;;;;;;;;;24.14;51.52;99275.94;4429500;32;37816;-82
2022/08/17 04:04:49;;;;;;;;;;;;;;;23.97;52.06;99283.84;4429871;32;39337;-82
2022/08/17 04:07:20;;;;;;;;;;;;;;;23.92;52.31;99275.28;4429981;32;36617;-82
2022/08/17 04:09:48;;;;;;;;;;;;;;;24.08;51.78;99276.25;4433621;32;38959;-82
2022/08/17 04:12:16;;;;;;;;;;;;;;;24.13;51.49;99279.53;4429343;32;38469;-83
2022/08/17 04:14:44;;;;;;;;;;;;;;;24.19;51.46;99282.81;4434059;32;38445;-83
2022/08/17 04:17:21;;;;;;;;;;;;;;;24.25;51.34;99287.78;4442258;32;36141;-82
2022/08/17 04:19:48;;;;;;;;;;;;;;;24.11;51.65;99286.69;4444919;32;39608;-82
2022/08/17 04:22:16;;;;;;;;;;;;;;;24.23;51.50;99284.37;4439034;32;38160;-84
2022/08/17 04:25:18;;;;;;;;;;;;;;;24.29;51.17;99289.38;4431612;32;38918;-83
2022/08/17 04:27:47;;;;;;;;;;;;;;;24.29;51.49;99294.66;4433364;32;37633;-83
2022/08/17 04:30:14;;;;;;;;;;;;;;;24.28;51.57;99298.22;4441426;32;37999;-84
2022/08/17 04:32:53;;;;;;;;;;;;;;;24.21;51.76;99302.09;4444979;32;38104;-84
2022/08/17 04:35:43;;;;;;;;;;;;;;;24.36;51.51;99298.72;4444583;32;38437;-83
2022/08/17 04:38:11;;;;;;;;;;;;;;;24.37;51.38;99300.41;4435878;32;38000;-82
2022/08/17 04:43:25;;;;;;;;;;;;;;;24.46;51.26;99301.78;4442833;32;37977;-81
2022/08/17 04:45:56;;;;;;;;;;;;;;;24.50;51.29;99308.63;4440117;32;39661;-79
2022/08/17 04:48:24;;;;;;;;;;;;;;;24.59;50.94;99305.53;4429799;32;36529;-84
2022/08/17 04:51:03;;;;;;;;;;;;;;;24.49;51.06;99310.44;4429668;32;38134;-84
2022/08/17 04:53:30;;;;;;;;;;;;;;;24.55;50.29;99312.78;4439254;32;37956;-84
2022/08/17 04:55:58;;;;;;;;;;;;;;;24.63;49.80;99314.19;4429335;32;39490;-85
2022/08/17 04:58:26;;;;;;;;;;;;;;;24.59;50.45;99303.75;4424672;32;36185;-87
2022/08/17 05:00:53;;;;;;;;;;;;;;;24.65;50.89;99307.03;4422320;32;39403;-85
2022/08/17 05:03:20;;;;;;;;;;;;;;;24.78;50.64;99313.41;4421726;32;38002;-86
2022/08/17 05:05:50;;;;;;;;;;;;;;;24.75;50.80;99311.75;4421838;32;38346;-84
2022/08/17 05:08:18;;;;;;;;;;;;;;;24.81;50.99;99318.53;4422561;32;38338;-84
2022/08/17 05:10:46;;;;;;;;;;;;;;;24.97;50.78;99324.78;4438958;32;37922;-87
2022/08/17 05:13:15;;;;;;;;;;;;;;;25.01;50.77;99330.75;4423607;32;38823;-84
2022/08/17 05:15:43;;;;;;;;;;;;;;;25.06;50.96;99329.59;4427402;32;39489;-84
2022/08/17 05:18:14;;;;;;;;;;;;;;;25.08;50.58;99337.47;4428189;32;37445;-87
2022/08/17 05:20:42;;;;;;;;;;;;;;;25.20;50.34;99330.69;4424402;32;37745;-82
2022/08/17 05:23:11;;;;;;;;;;;;;;;25.26;50.50;99330.37;4420557;32;38419;-83
2022/08/17 05:25:39;;;;;;;;;;;;;;;25.31;50.39;99332.81;4434315;32;39511;-87
2022/08/17 05:28:07;;;;;;;;;;;;;;;25.36;50.60;99328.09;4427431;32;37376;-89
2022/08/17 05:30:35;;;;;;;;;;;;;;;25.29;50.88;99324.91;4424909;32;38344;-85
2022/08/17 05:33:05;;;;;;;;;;;;;;;25.43;50.56;99327.72;4421057;32;37689;-85
2022/08/17 05:35:36;;;;;;;;;;;;;;;25.49;50.22;99326.50;4421828;32;39150;-84
2022/08/17 05:38:03;;;;;;;;;;;;;;;25.51;50.22;99335.25;4418674;32;36989;-84
2022/08/17 05:40:31;;;;;;;;;;;;;;;25.52;50.16;99327.19;4424374;32;38721;-84
2022/08/17 05:43:09;;;;;;;;;;;;;;;25.73;49.85;99329.66;4430613;32;37819;-84
2022/08/17 05:45:38;;;;;;;;;;;;;;;25.65;50.34;99332.69;4423992;32;38625;-84
2022/08/17 05:48:23;;;;;;;;;;;;;;;25.65;50.23;99329.19;4415071;32;36857;-84
2022/08/17 05:51:25;;;;;;;;;;;;;;;25.75;50.27;99333.06;4413813;32;37886;-86
2022/08/17 05:53:52;;;;;;;;;;;;;;;25.93;49.75;99331.22;4414557;32;38247;-87
2022/08/17 05:56:30;;;;;;;;;;;;;;;25.90;49.31;99337.56;4414873;32;38712;-85
2022/08/17 05:59:16;;;;;;;;;;;;;;;25.93;49.03;99333.88;4415017;32;36877;-86
2022/08/17 06:02:03;;;;;;;;;;;;;;;26.10;48.50;99332.94;4421856;32;39147;-88
2022/08/17 06:04:36;;;;;;;;;;;;;;;26.20;48.60;99334.16;4427634;32;39434;-87
2022/08/17 06:07:23;;;;;;;;;;;;;;;26.03;48.88;99336.88;4417620;32;38541;-85
2022/08/17 06:09:54;;;;;;;;;;;;;;;26.28;48.10;99342.50;4387774;32;36859;-86
2022/08/17 06:12:40;;;;;;;;;;;;;;;26.36;47.82;99342.09;4425654;32;38338;-85
2022/08/17 06:15:26;;;;;;;;;;;;;;;26.57;47.22;99332.06;4423201;32;38100;-85
2022/08/17 06:17:55;;;;;;;;;;;;;;;26.65;47.08;99332.50;4421495;32;39349;-86
2022/08/17 06:20:26;;;;;;;;;;;;;;;26.84;46.00;99340.22;4415167;32;36232;-85
2022/08/17 06:23:02;;;;;;;;;;;;;;;26.54;47.39;99332.25;4394278;32;38673;-85
2022/08/17 06:25:36;;;;;;;;;;;;;;;26.86;46.53;99336.50;4430131;32;38826;-87
2022/08/17 06:28:04;;;;;;;;;;;;;;;26.99;46.46;99344.59;4425325;32;38160;-85
2022/08/17 06:30:40;;;;;;;;;;;;;;;27.16;46.05;99334.84;4424148;32;37739;-84
2022/08/17 06:33:31;;;;;;;;;;;;;;;27.12;46.29;99334.09;4413144;32;39067;-83
2022/08/17 06:36:02;;;;;;;;;;;;;;;27.35;45.60;99330.97;4414686;32;38148;-83
2022/08/17 06:39:05;;;;;;;;;;;;;;;27.52;45.17;99335.22;4423008;32;38183;-84
2022/08/17 06:41:33;;;;;;;;;;;;;;;27.87;44.54;99342.84;4382683;32;37537;-88
2022/08/17 06:44:18;;;;;;;;;;;;;;;28.05;43.62;99348.81;4415787;32;37820;-85
2022/08/17 06:47:07;;;;;;;;;;;;;;;28.44;42.77;99357.84;4441084;32;37928;-87
2022/08/17 06:49:41;;;;;;;;;;;;;;;28.71;43.46;99356.00;4427253;32;38690;-84
2022/08/17 06:52:16;;;;;;;;;;;;;;;29.16;42.17;99359.25;4412342;32;37325;-88
2022/08/17 06:55:08;;;;;;;;;;;;;;;29.68;41.15;99357.47;4418080;32;37746;-89
2022/08/17 06:57:49;;;;;;;;;;;;;;;30.03;41.59;99352.28;4412858;32;38085;-86
2022/08/17 07:00:17;;;;;;;;;;;;;;;30.46;40.71;99359.81;4421933;32;38578;-87
2022/08/17 07:02:48;;;;;;;;;;;;;;;30.42;40.52;99353.00;4440985;32;36478;-82
2022/08/17 07:05:20;;;;;;;;;;;;;;;30.96;40.64;99363.22;4428936;32;38076;-84
2022/08/17 07:08:10;;;;;;;;;;;;;;;31.26;36.30;99353.81;4427076;32;38090;-83
2022/08/17 07:10:40;;;;;;;;;;;;;;;31.15;36.93;99356.47;4417703;32;38444;-85
2022/08/17 07:13:18;;;;;;;;;;;;;;;31.66;37.67;99348.06;4427303;32;36834;-81
2022/08/17 07:15:45;;;;;;;;;;;;;;;31.71;37.23;99348.53;4423759;32;38428;-82
2022/08/17 07:18:13;;;;;;;;;;;;;;;32.10;35.79;99347.19;4412224;32;38963;-82
2022/08/17 07:20:41;;;;;;;;;;;;;;;32.07;35.29;99349.25;4418146;32;38077;-82
2022/08/17 07:23:25;;;;;;;;;;;;;;;32.52;35.38;99354.56;4425420;32;36297;-80
2022/08/17 07:25:53;;;;;;;;;;;;;;;32.57;34.36;99352.31;4413275;32;37882;-82
2022/08/17 07:28:21;;;;;;;;;;;;;;;32.82;34.69;99351.97;4428797;32;38057;-82
2022/08/17 07:30:51;;;;;;;;;;;;;;;33.38;31.79;99349.97;4414740;32;39436;-82
2022/08/17 07:33:26;;;;;;;;;;;;;;;33.37;34.26;99350.94;4427894;32;36587;-80
2022/08/17 07:35:53;;;;;;;;;;;;;;;33.55;32.54;99349.41;4424907;32;38127;-81
2022/08/17 07:38:23;;;;;;;;;;;;;;;33.43;32.40;99348.59;4412486;32;37931;-81
2022/08/17 07:40:56;;;;;;;;;;;;;;;33.77;32.31;99354.56;4412723;32;37932;-82
2022/08/17 07:43:24;;;;;;;;;;;;;;;33.94;30.29;99349.53;4414756;32;36619;-82
2022/08/17 07:48:48;;;;;;;;;;;;;;;34.36;30.14;99344.84;4425885;32;37912;-78
2022/08/17 07:51:15;;;;;;;;;;;;;;;34.05;31.85;99346.78;4427817;32;38224;-79
2022/08/17 07:53:44;;;;;;;;;;;;;;;34.53;29.98;99351.44;4435193;32;36692;-79
2022/08/17 07:56:30;;;;;;;;;;;;;;;34.53;30.90;99346.03;4435168;32;38233;-78
2022/08/17 07:59:06;;;;;;;;;;;;;;;34.36;30.97;99344.00;4435387;32;38968;-78
2022/08/17 08:01:36;;;;;;;;;;;;;;;34.61;30.90;99354.25;4433742;32;39389;-79
2022/08/17 08:04:15;;;;;;;;;;;;;;;35.08;29.00;99357.09;4399293;32;36111;-79
2022/08/17 08:06:58;;;;;;;;;;;;;;;35.36;27.65;99351.78;4413851;32;37849;-79
2022/08/17 08:09:28;;;;;;;;;;;;;;;34.81;30.65;99351.53;4411549;32;39019;-79
2022/08/17 08:11:56;;;;;;;;;;;;;;;35.28;28.59;99351.66;4412459;32;38549;-78
2022/08/17 08:14:24;;;;;;;;;;;;;;;35.30;27.83;99349.69;4411826;32;37523;-78
2022/08/17 08:16:57;;;;;;;;;;;;;;;35.71;26.85;99347.59;4411275;32;38802;-80
2022/08/17 08:19:25;;;;;;;;;;;;;;;35.46;27.69;99349.06;4411364;32;37973;-78
2022/08/17 08:22:19;;;;;;;;;;;;;;;35.66;27.15;99339.09;4412102;32;38695;-81
2022/08/17 08:25:22;;;;;;;;;;;;;;;35.56;28.48;99345.37;4393045;32;37362;-84
2022/08/17 08:27:51;;;;;;;;;;;;;;;35.87;26.94;99350.50;4357514;32;37974;-81
2022/08/17 08:30:20;;;;;;;;;;;;;;;36.12;25.75;99346.25;4399113;32;38073;-79
2022/08/17 08:33:26;;;;;;;;;;;;;;;36.02;28.43;99343.63;4407493;32;39355;-79
2022/08/17 08:36:07;;;;;;;;;;;;;;;36.40;25.71;99344.38;4382975;32;37971;-79
2022/08/17 08:38:59;;;;;;;;;;;;;;;36.32;26.07;99347.00;4379516;32;38171;-78
2022/08/17 08:41:33;;;;;;;;;;;;;;;36.47;26.14;99348.16;4393040;32;37835;-79
2022/08/17 08:44:11;;;;;;;;;;;;;;;35.96;26.44;99346.91;4412150;32;38153;-78
2022/08/17 08:46:39;;;;;;;;;;;;;;;36.40;25.16;99344.38;4406193;32;37772;-79
2022/08/17 08:49:20;;;;;;;;;;;;;;;36.20;25.67;99348.19;4413730;32;38181;-79
2022/08/17 08:52:16;;;;;;;;;;;;;;;36.81;24.27;99336.69;4422249;32;37594;-79
2022/08/17 08:54:46;;;;;;;;;;;;;;;36.86;24.20;99339.78;4405939;32;38673;-80
2022/08/17 08:57:14;;;;;;;;;;;;;;;36.32;26.67;99338.91;4412120;32;36824;-79
2022/08/17 09:00:13;;;;;;;;;;;;;;;36.33;26.06;99343.28;4413742;32;37891;-80
2022/08/17 09:02:44;;;;;;;;;;;;;;;36.24;25.03;99339.66;4413161;32;38894;-80
2022/08/17 09:05:32;;;;;;;;;;;;;;;36.87;22.58;99336.06;4413341;32;38371;-80
2022/08/17 09:08:22;;;;;;;;;;;;;;;36.98;23.01;99338.56;4404110;32;37476;-80
2022/08/17 09:10:55;;;;;;;;;;;;;;;36.95;22.73;99333.44;4410574;32;38884;-79
2022/08/17 09:13:36;;;;;;;;;;;;;;;37.25;21.23;99350.19;4423735;32;37937;-80
2022/08/17 09:16:28;;;;;;;;;;;;;;;37.42;21.42;99337.66;4414115;32;38044;-81
2022/08/17 09:18:57;;;;;;;;;;;;;;;37.44;22.05;99350.00;4414341;32;36274;-80
2022/08/17 09:21:39;;;;;;;;;;;;;;;37.58;22.04;99353.13;4413870;32;39705;-81
2022/08/17 09:24:30;;;;;;;;;;;;;;;37.25;22.69;99350.19;4414370;32;38104;-78
2022/08/17 09:26:58;;;;;;;;;;;;;;;36.90;24.29;99351.94;4409628;32;38593;-81
2022/08/17 09:29:26;;;;;;;;;;;;;;;36.76;24.13;99349.81;4415343;32;36128;-81
2022/08/17 09:31:55;;;;;;;;;;;;;;;37.56;22.08;99352.44;4426690;32;39183;-78
2022/08/17 09:34:29;;;;;;;;;;;;;;;37.24;22.63;99348.53;4415174;32;37574;-80
2022/08/17 09:37:02;;;;;;;;;;;;;;;37.13;23.83;99351.47;4421523;32;39510;-79
2022/08/17 09:39:33;;;;;;;;;;;;;;;37.24;22.22;99346.66;4429140;32;37044;-81
2022/08/17 09:42:07;;;;;;;;;;;;;;;37.52;22.04;99345.66;4427148;32;37899;-79
2022/08/17 09:44:53;;;;;;;;;;;;;;;37.45;21.95;99340.91;4408610;32;39159;-79
2022/08/17 09:47:29;;;;;;;;;;;;;;;37.27;22.24;99342.81;4414881;32;39467;-78
2022/08/17 09:49:59;;;;;;;;;;;;;;;37.38;22.51;99322.78;4413958;32;36923;-80
2022/08/17 09:52:48;;;;;;;;;;;;;;;36.92;24.24;99333.75;4413737;32;38267;-79
2022/08/17 09:55:15;;;;;;;;;;;;;;;37.05;22.81;99332.50;4415289;32;38018;-78
2022/08/17 09:57:50;;;;;;;;;;;;;;;37.49;21.44;99335.19;4414729;32;38401;-79
2022/08/17 10:00:24;;;;;;;;;;;;;;;37.72;21.23;99332.75;4411201;32;37648;-80
2022/08/17 10:03:08;;;;;;;;;;;;;;;37.31;22.94;99338.78;4405304;32;38658;-79
2022/08/17 10:05:40;;;;;;;;;;;;;;;37.63;21.47;99338.13;4415074;32;38574;-81
2022/08/17 10:08:12;;;;;;;;;;;;;;;37.29;22.86;99346.16;4413881;32;38915;-79
2022/08/17 10:10:58;;;;;;;;;;;;;;;37.77;21.86;99338.53;4414111;32;37568;-79
2022/08/17 10:13:32;;;;;;;;;;;;;;;37.92;21.01;99340.47;4415189;32;38236;-79
2022/08/17 10:16:11;;;;;;;;;;;;;;;37.92;20.43;99348.59;4413561;32;38202;-80
2022/08/17 10:18:41;;;;;;;;;;;;;;;37.57;21.27;99337.94;4413308;32;38707;-79
2022/08/17 10:26:48;;;;;;;;;;;;;;;38.19;20.59;99332.28;4414761;32;38152;-79
2022/08/17 10:29:34;;;;;;;;;;;;;;;38.24;20.79;99330.78;4418235;32;40436;-79
2022/08/17 10:32:20;;;;;;;;;;;;;;;37.82;21.87;99334.34;4429541;32;37613;-79
2022/08/17 10:34:50;;;;;;;;;;;;;;;37.26;22.61;99324.06;4423785;32;38335;-78
2022/08/17 10:37:24;;;;;;;;;;;;;;;37.84;20.90;99329.59;4427249;32;37724;-81
2022/08/17 10:39:59;;;;;;;;;;;;;;;38.28;19.64;99332.13;4430137;32;39886;-79
2022/08/17 10:42:27;;;;;;;;;;;;;;;38.27;19.80;99335.00;4422696;32;37116;-78
2022/08/17 10:45:19;;;;;;;;;;;;;;;38.26;19.69;99334.16;4425982;32;38155;-80
2022/08/17 10:47:58;;;;;;;;;;;;;;;38.07;19.78;99338.00;4424960;32;39362;-79
2022/08/17 10:50:48;;;;;;;;;;;;;;;37.86;19.99;99327.59;4424924;32;38486;-80
2022/08/17 10:53:30;;;;;;;;;;;;;;;38.30;19.37;99330.13;4415379;32;36553;-79
2022/08/17 10:56:12;;;;;;;;;;;;;;;38.39;20.14;99320.19;4424790;32;38020;-78
2022/08/17 10:58:53;;;;;;;;;;;;;;;38.67;19.33;99320.69;4429851;32;38375;-79
2022/08/17 11:01:32;;;;;;;;;;;;;;;38.54;20.03;99323.06;4428642;32;39511;-78
2022/08/17 11:04:06;;;;;;;;;;;;;;;37.80;20.00;99312.03;4428001;32;37849;-79
2022/08/17 11:06:37;;;;;;;;;;;;;;;38.13;21.20;99317.56;4426049;32;37896;-79
2022/08/17 11:09:08;;;;;;;;;;;;;;;37.91;20.58;99319.00;4430327;32;39140;-80
2022/08/17 11:11:39;;;;;;;;;;;;;;;37.51;21.86;99316.97;4425739;32;38410;-78
2022/08/17 11:14:15;;;;;;;;;;;;;;;37.38;21.88;99318.22;4425110;32;36709;-78
2022/08/17 11:16:49;;;;;;;;;;;;;;;37.30;23.06;99310.06;4420658;32;37780;-78
2022/08/17 11:19:35;;;;;;;;;;;;;;;37.38;22.84;99318.22;4427655;32;38114;-79
2022/08/17 11:22:28;;;;;;;;;;;;;;;37.62;21.93;99316.66;4428516;32;39425;-81
2022/08/17 11:25:17;;;;;;;;;;;;;;;37.29;22.71;99308.37;4407135;32;37806;-79
2022/08/17 11:27:45;;;;;;;;;;;;;;;37.34;23.67;99305.22;4426915;32;38142;-82
2022/08/17 11:30:13;;;;;;;;;;;;;;;37.75;22.16;99303.59;4410221;32;38091;-81
2022/08/17 11:32:43;;;;;;;;;;;;;;;37.49;22.36;99303.62;4418708;32;38229;-78
2022/08/17 11:35:21;;;;;;;;;;;;;;;36.40;24.74;99306.63;4428510;32;35412;-80
2022/08/17 11:37:57;;;;;;;;;;;;;;;36.60;24.74;99293.00;4103454;32;10003971;-77
2022/08/17 11:40:28;;;;;;;;;;;;;;;37.08;22.67;99294.41;4398665;32;39199;-78
2022/08/17 11:43:02;;;;;;;;;;;;;;;37.15;22.47;99295.47;4398001;32;39016;-78
2022/08/17 11:45:36;;;;;;;;;;;;;;;37.38;21.84;99296.62;4397380;32;38565;-78
2022/08/17 11:51:34;;;;;;;;;;;;;;;36.84;23.57;99293.22;4431286;32;38535;-78
2022/08/17 11:54:03;;;;;;;;;;;;;;;36.90;22.34;99275.56;4432552;32;38416;-78
2022/08/17 11:56:51;;;;;;;;;;;;;;;37.20;22.27;99280.47;4439521;32;38782;-78
2022/08/17 11:59:44;;;;;;;;;;;;;;;37.37;22.34;99289.53;4443449;32;36962;-78
2022/08/17 12:02:18;;;;;;;;;;;;;;;37.68;21.20;99278.19;4440438;32;38915;-80
2022/08/17 12:05:04;;;;;;;;;;;;;;;37.38;21.63;99279.56;4440881;32;38453;-80
2022/08/17 12:07:57;;;;;;;;;;;;;;;37.59;20.71;99287.28;4435781;32;38413;-81
2022/08/17 12:10:31;;;;;;;;;;;;;;;37.62;20.57;99282.44;4439321;32;36567;-80
2022/08/17 12:13:00;;;;;;;;;;;;;;;37.17;22.62;99272.69;4429506;32;41138;-80
2022/08/17 12:15:30;;;;;;;;;;;;;;;37.17;21.00;99266.47;4443483;32;37974;-80
2022/08/17 12:17:58;;;;;;;;;;;;;;;37.50;20.60;99269.37;4425327;32;38949;-81
2022/08/17 12:20:31;;;;;;;;;;;;;;;37.65;19.66;99265.03;4435812;32;36598;-81
2022/08/17 12:22:59;;;;;;;;;;;;;;;37.68;20.99;99260.13;4438714;32;38206;-82
2022/08/17 12:25:36;;;;;;;;;;;;;;;36.70;21.14;99253.31;4436853;32;37534;-80
2022/08/17 12:28:23;;;;;;;;;;;;;;;36.35;21.13;99255.03;4436566;32;39052;-82
2022/08/17 12:30:51;;;;;;;;;;;;;;;36.26;21.52;99250.56;4440044;32;35578;-84
2022/08/17 12:33:20;;;;;;;;;;;;;;;37.25;20.57;99250.31;4430522;32;39527;-83
2022/08/17 12:36:02;;;;;;;;;;;;;;;37.83;19.47;99246.84;4428211;32;37837;-83
2022/08/17 12:38:34;;;;;;;;;;;;;;;36.97;21.29;99250.47;4432910;32;39012;-82
2022/08/17 12:41:25;;;;;;;;;;;;;;;37.48;20.63;99258.72;4439720;32;36774;-83
2022/08/17 12:44:00;;;;;;;;;;;;;;;37.93;19.35;99249.44;3828005;32;20003028;-81
2022/08/17 12:46:28;;;;;;;;;;;;;;;37.81;19.37;99254.25;4438394;32;38895;-81
2022/08/17 12:49:10;;;;;;;;;;;;;;;37.64;20.00;99244.44;4438937;32;37949;-80
2022/08/17 12:51:41;;;;;;;;;;;;;;;37.30;20.62;99247.97;4440662;32;38071;-81
2022/08/17 12:54:19;;;;;;;;;;;;;;;37.43;20.14;99248.38;4421866;32;37841;-82
2022/08/17 12:56:46;;;;;;;;;;;;;;;37.89;19.36;99248.91;4433840;32;38449;-81
2022/08/17 12:59:14;;;;;;;;;;;;;;;37.85;19.61;99250.25;4437631;32;36834;-81
2022/08/17 13:01:55;;;;;;;;;;;;;;;37.98;18.43;99254.37;4427664;32;37238;-81
2022/08/17 13:04:23;;;;;;;;;;;;;;;38.30;18.18;99249.00;4430857;32;39362;-81
2022/08/17 13:06:55;;;;;;;;;;;;;;;37.85;20.00;99249.41;4397953;32;38574;-81
2022/08/17 13:09:29;;;;;;;;;;;;;;;38.15;18.56;99250.66;4420384;32;36770;-79
2022/08/17 13:12:06;;;;;;;;;;;;;;;38.29;17.93;99249.16;4407170;32;38817;-82
2022/08/17 13:14:34;;;;;;;;;;;;;;;38.14;17.98;99249.81;4406083;32;38320;-82
2022/08/17 13:17:03;;;;;;;;;;;;;;;37.81;18.10;99238.06;4400552;32;38390;-84
2022/08/17 13:19:44;;;;;;;;;;;;;;;37.70;20.16;99238.37;4398051;32;38257;-82
2022/08/17 13:22:11;;;;;;;;;;;;;;;37.33;20.88;99241.41;4404344;32;38035;-82
2022/08/17 13:24:39;;;;;;;;;;;;;;;37.22;19.43;99248.78;4422646;32;38068;-84
2022/08/17 13:27:07;;;;;;;;;;;;;;;37.26;18.64;99233.09;4412408;32;37970;-85
2022/08/17 13:29:37;;;;;;;;;;;;;;;36.37;18.92;99242.22;4418187;32;36763;-81
2022/08/17 13:32:05;;;;;;;;;;;;;;;37.23;18.92;99234.28;4403474;32;37994;-80
2022/08/17 13:34:42;;;;;;;;;;;;;;;37.70;17.96;99235.69;4418088;32;38401;-82
2022/08/17 13:37:31;;;;;;;;;;;;;;;37.49;18.44;99232.56;4421499;32;38766;-84
2022/08/17 13:40:07;;;;;;;;;;;;;;;37.54;19.56;99227.53;4428482;32;37616;-81
2022/08/17 13:42:41;;;;;;;;;;;;;;;37.99;18.22;99237.13;4423466;32;38272;-81
2022/08/17 13:45:29;;;;;;;;;;;;;;;37.88;17.88;99227.47;4422564;32;39536;-80
2022/08/17 13:48:08;;;;;;;;;;;;;;;37.88;18.06;99231.00;4435209;32;39300;-80